• Join FlightAware (Why Join?)
  • Login
  • US Flag 
08:10PM EDT


 

Airport Tracker/Info


-or-


 

Live Flight TrackerFlight Track Log ✈ SWA127 ✈ 24-Apr-2013 ✈ KHOU - KHRL

Flight Track Log - Related Links

Times and Time Zones

All times are in EDT time to prevent confusion due to time zone crossing. See the SWA127 flight status page for this flight to view local times or setup timezone preferences in your user account.

Time Position Orientation Groundspeed Altitude Reporting Facility
EDT Latitude Longitude Course Direction KTS MPH feet Rate Location/Type
11:56AM 29.6519 -95.2872 284° West 154 177 800  Level Houston Center
11:57AM 29.6667 -95.3550 284° West 253 291 3,800 2,100 Climbing Houston Center
11:58AM 29.6389 -95.3900 228° Southwest 272 313 4,900 1,200 Climbing Houston Center
11:58AM 29.6147 -95.4069 211° Southwest 262 302 5,100  Climbing Houston Center
11:59AM 29.5703 -95.4083 182° South 269 310 4,900 360 Descending Houston Center
11:59AM 29.5414 -95.4086 180° South 265 305 5,500 3,000 Climbing Houston Center
12:00PM 29.4847 -95.4011 173° South 263 303 8,000 1,860 Climbing Houston Center
12:01PM 29.4150 -95.3350 140° Southeast 297 342 9,100 420 Climbing Houston Center
12:02PM 29.3542 -95.3181 166° South 295 339 8,900 -120 Descending Houston Center
12:03PM 29.2772 -95.3219 183° South 278 320 8,900 1,020 Level Houston Center
12:04PM 29.2042 -95.3489 198° South 279 321 11,100 2,460 Climbing Houston Center
12:05PM 29.1300 -95.3922 207° Southwest 299 344 14,000 2,100 Climbing Houston Center
12:06PM 29.0461 -95.4408 207° Southwest 335 386 15,500 2,160 Climbing Houston Center
12:07PM 28.9458 -95.5194 214° Southwest 361 415 18,500 2,400 Climbing Houston Center
12:08PM 28.8619 -95.5897 216° Southwest 372 428 20,500 1,980 Climbing Houston Center
12:09PM 28.7728 -95.6606 215° Southwest 385 443 22,700 1,680 Climbing Houston Center
12:11PM 28.6894 -95.7284 216° Southwest  Level FlightAware Approximate
12:11PM 28.5883 -95.8094 216° Southwest 408 470 25,800  Level Houston Center
12:12PM 28.4911 -95.8872 215° Southwest 420 483 27,500 2,100 Climbing Houston Center
12:13PM 28.3758 -95.9781 215° Southwest 421 484 30,200 1,920 Climbing Houston Center
12:14PM 28.2833 -96.0528 215° Southwest 412 474 31,500 1,500 Climbing Houston Center
12:16PM 28.1897 -96.1289 216° Southwest 412 474 33,400 1,200 Climbing Houston Center
12:17PM 28.0994 -96.2036 216° Southwest 409 471 34,000 240 Climbing Houston Center
12:18PM 28.0108 -96.2692 213° Southwest 397 457 34,000  Level Houston Center
12:19PM 27.9203 -96.3417 215° Southwest 397 457 34,000  Level Houston Center
12:20PM 27.8281 -96.4136 215° Southwest 400 460 34,000  Level Houston Center
12:21PM 27.7172 -96.5006 215° Southwest 402 463 34,000  Level Houston Center
12:22PM 27.6250 -96.5753 216° Southwest 405 466 34,000  Level Houston Center
12:23PM 27.5322 -96.6472 215° Southwest 405 466 34,000 -300 Level Houston Center
12:24PM 27.4411 -96.7178 215° Southwest 400 460 33,500 -1,920 Descending Houston Center
12:25PM 27.3475 -96.7911 215° Southwest 405 466 30,100 -3,360 Descending Houston Center
12:26PM 27.2422 -96.8739 215° Southwest 420 483 26,600 -3,000 Descending Houston Center
12:27PM 27.1467 -96.9472 214° Southwest 420 483 24,000 -2,520 Descending Houston Center
12:28PM 27.0472 -96.9964 204° Southwest 407 468 21,400 -2,580 Descending Houston Center
12:29PM 26.9083 -96.9972 180° South 414 476 18,700 -2,520 Descending Houston Center
12:29PM 26.8528 -96.9986 181° South 401 461 17,700 -1,800 Descending Houston Center
12:30PM 26.7992 -97.0033 184° South 400 460 16,900 -1,320 Descending Houston Center
12:31PM 26.7506 -97.0458 218° Southwest 340 391 16,100 -1,380 Descending Houston Center
12:31PM 26.7311 -97.0731 231° Southwest 347 399 15,500 -3,060 Descending Houston Center
12:32PM 26.6856 -97.1231 224° Southwest 329 379 13,000 -3,600 Descending Houston Center
12:32PM 26.6497 -97.1528 217° Southwest 349 402 11,800 -1,320 Descending Houston Center
12:33PM 26.6025 -97.1883 214° Southwest 324 373 11,700 -600 Descending Houston Center
12:33PM 26.5789 -97.2056 213° Southwest 297 342 11,200 -1,620 Descending Houston Center
12:34PM 26.5364 -97.2372 214° Southwest 276 318 10,100 -1,800 Descending Houston Center
12:34PM 26.5081 -97.2592 215° Southwest 284 327 9,400 -1,500 Descending Houston Center
12:35PM 26.4722 -97.2858 214° Southwest 278 320 8,600 -1,560 Descending Houston Center
12:35PM 26.4447 -97.3075 215° Southwest 278 320 7,800 -1,680 Descending Houston Center
12:36PM 26.4103 -97.3342 215° Southwest 276 318 6,900 -1,560 Descending Houston Center
12:36PM 26.3828 -97.3583 218° Southwest 276 318 6,200 -1,560 Descending Houston Center
12:37PM 26.3544 -97.3814 216° Southwest 274 315 5,500 -1,680 Descending Houston Center
12:37PM 26.3183 -97.4133 218° Southwest 271 312 4,500 -1,500 Descending Houston Center
12:38PM 26.2950 -97.4339 218° Southwest 270 311 4,000 -540 Descending Houston Center
12:38PM 26.2606 -97.4669 221° Southwest 269 310 4,000  Level Houston Center
12:39PM 26.2378 -97.4883 220° Southwest 269 310 4,000  Level Houston Center
12:39PM 26.1975 -97.5244 219° Southwest 270 311 4,000  Level Houston Center
12:40PM 26.1747 -97.5458 220° Southwest 271 312 4,000 -420 Level Houston Center
12:40PM 26.1372 -97.5758 216° Southwest 272 313 3,600 -1,140 Descending Houston Center
12:41PM 26.1094 -97.5850 197° South 264 304 2,900 -1,560 Descending Houston Center
12:41PM 26.0658 -97.6017 199° South 267 307 2,000 -900 Descending Houston Center
12:42PM 26.0417 -97.6175 210° Southwest 262 302 2,000  Level Houston Center
12:42PM 26.0492 -97.6533 283° West 201 231 2,000  Level Houston Center
12:43PM 26.0675 -97.6631 335° Northwest 151 174 2,000 -300 Level Houston Center
12:43PM 26.0897 -97.6589 10° North 153 176 1,700 -540 Descending Houston Center
12:44PM 26.1092 -97.6575 North 137 158 1,500 -240 Descending Houston Center
12:44PM 26.1333 -97.6586 358° North 147 169 1,500  Level Houston Center
12:45PM 26.1453 -97.6619 346° North 124 143 1,500 -300 Level Houston Center
12:46PM 26.1667 -97.6594 North 125 144 1,200 -600 Descending Houston Center
12:46PM 26.1767 -97.6600 357° North 117 135 1,000 -780 Descending Houston Center
12:47PM 26.2025 -97.6589 North 121 139 400 -840 Descending Houston Center